Time;durP1;ratioP1;P1;durP2;ratioP2;P2;SDS_P1;SDS_P2;PMS_P1;PMS_P2;Temp;Humidity;BMP_temperature;BMP_pressure;BME280_temperature;BME280_humidity;BME280_pressure;Samples;Min_cycle;Max_cycle;Signal;HPM_P1;HPM_P2
2022/10/09 00:01:09;;;;;;;4.60;1.77;;;;;;;10.07;100.00;102496.56;5023598;28;20537;-70
2022/10/09 00:03:35;;;;;;;10.70;2.10;;;;;;;10.30;100.00;102543.38;5018519;28;20212;-71
2022/10/09 00:06:01;;;;;;;6.17;1.50;;;;;;;10.15;100.00;102550.22;5022963;28;20424;-70
2022/10/09 00:08:27;;;;;;;4.00;1.67;;;;;;;10.05;100.00;102555.69;5003448;28;22312;-71
2022/10/09 00:10:52;;;;;;;5.93;1.70;;;;;;;10.20;100.00;102561.34;5019869;28;20439;-71
2022/10/09 00:13:18;;;;;;;21.20;2.00;;;;;;;9.80;100.00;102455.44;5018609;28;20292;-71
2022/10/09 00:15:44;;;;;;;5.63;1.70;;;;;;;10.14;100.00;102533.31;5020616;28;20180;-71
2022/10/09 00:18:12;;;;;;;3.53;1.40;;;;;;;10.03;100.00;102554.16;5004932;28;20602;-71
2022/10/09 00:20:40;;;;;;;4.10;1.57;;;;;;;9.91;100.00;102557.06;5013479;28;20479;-71
2022/10/09 00:23:06;;;;;;;2.40;1.43;;;;;;;9.95;100.00;102566.50;5017068;28;20486;-70
2022/10/09 00:25:34;;;;;;;8.53;2.10;;;;;;;9.91;100.00;102561.56;5016672;28;20447;-71
2022/10/09 00:28:00;;;;;;;6.37;2.07;;;;;;;9.94;100.00;102526.44;5017307;28;20967;-71
2022/10/09 00:30:25;;;;;;;3.63;1.17;;;;;;;10.10;100.00;102564.13;5023212;28;20431;-71
2022/10/09 00:32:51;;;;;;;2.73;1.30;;;;;;;9.96;100.00;102522.59;5005211;28;20250;-70
2022/10/09 00:35:17;;;;;;;3.70;1.77;;;;;;;10.01;100.00;102559.69;5021828;28;20197;-71
2022/10/09 00:37:42;;;;;;;3.87;1.67;;;;;;;10.19;100.00;102559.69;5006510;28;20192;-71
2022/10/09 00:40:08;;;;;;;3.57;1.83;;;;;;;10.35;100.00;102561.66;5020388;28;20213;-70
2022/10/09 00:42:33;;;;;;;8.57;2.10;;;;;;;9.65;100.00;102522.13;5004095;28;20281;-70
2022/10/09 00:45:00;;;;;;;4.73;1.53;;;;;;;9.27;100.00;102502.63;5021790;28;20708;-70
2022/10/09 00:47:31;;;;;;;5.13;2.13;;;;;;;9.27;100.00;102502.63;5024717;28;20750;-71
2022/10/09 00:50:20;;;;;;;3.90;1.67;;;;;;;9.49;100.00;102552.28;5020441;28;20427;-70
2022/10/09 00:52:49;;;;;;;8.33;1.90;;;;;;;9.50;100.00;102561.13;5021890;28;20468;-70
2022/10/09 00:55:15;;;;;;;5.70;1.90;;;;;;;9.71;100.00;102585.81;5017052;28;20442;-70
2022/10/09 00:57:42;;;;;;;4.90;2.10;;;;;;;9.07;100.00;102471.59;5018199;28;20446;-70
2022/10/09 01:00:10;;;;;;;4.90;1.80;;;;;;;9.82;100.00;102574.06;5016803;28;20466;-70
2022/10/09 01:02:36;;;;;;;2.60;1.50;;;;;;;9.95;100.00;102571.00;5020971;28;20451;-70
2022/10/09 01:05:02;;;;;;;4.37;1.43;;;;;;;9.88;100.00;102569.94;5019796;28;20469;-70
2022/10/09 01:07:49;;;;;;;2.70;1.77;;;;;;;9.66;100.00;102580.09;5001745;28;20519;-70
2022/10/09 01:10:33;;;;;;;2.87;1.63;;;;;;;9.65;100.00;102581.06;5019053;28;20185;-71
2022/10/09 01:13:37;;;;;;;4.57;1.70;;;;;;;9.79;100.00;102579.72;5017893;28;20441;-70
2022/10/09 01:16:14;;;;;;;5.60;1.80;;;;;;;9.39;100.00;102537.22;5003045;28;20441;-70
2022/10/09 01:18:44;;;;;;;4.37;1.57;;;;;;;9.70;100.00;102586.00;5020998;28;20451;-70
2022/10/09 01:21:16;;;;;;;3.97;1.60;;;;;;;9.92;100.00;102590.94;5017544;28;20528;-70
2022/10/09 01:23:57;;;;;;;7.03;1.73;;;;;;;9.89;100.00;102585.00;5016685;28;20510;-70
2022/10/09 01:26:50;;;;;;;6.40;2.00;;;;;;;9.68;100.00;102583.44;5010837;28;21521;-70
2022/10/09 01:29:18;;;;;;;5.10;1.77;;;;;;;9.96;100.00;102578.06;5018831;28;20443;-70
2022/10/09 01:31:47;;;;;;;5.30;1.70;;;;;;;9.55;100.00;102568.75;5019366;28;20821;-70
2022/10/09 01:34:15;;;;;;;3.33;1.60;;;;;;;9.47;100.00;102573.00;5016541;28;20473;-70
2022/10/09 01:36:43;;;;;;;6.20;1.73;;;;;;;9.52;100.00;102564.53;5020824;28;20493;-70
2022/10/09 01:39:15;;;;;;;4.93;1.87;;;;;;;8.87;100.00;102507.47;5020309;28;20462;-70
2022/10/09 01:41:42;;;;;;;2.50;1.40;;;;;;;9.45;100.00;102560.75;5020405;28;20541;-70
2022/10/09 01:44:18;;;;;;;5.67;1.67;;;;;;;9.40;100.00;102552.31;5020290;28;20976;-70
2022/10/09 01:46:46;;;;;;;5.53;1.50;;;;;;;9.37;100.00;102569.50;5019187;28;21483;-70
2022/10/09 01:49:30;;;;;;;5.73;1.73;;;;;;;9.28;100.00;102530.25;5018935;28;20806;-70
2022/10/09 01:52:04;;;;;;;3.37;1.30;;;;;;;9.34;100.00;102523.44;5015316;28;20507;-70
2022/10/09 01:54:40;;;;;;;5.50;2.00;;;;;;;9.85;100.00;102562.19;5021140;28;20512;-70
2022/10/09 01:57:09;;;;;;;5.53;1.90;;;;;;;9.76;100.00;102561.25;5017612;28;20446;-71
2022/10/09 01:59:38;;;;;;;4.87;1.80;;;;;;;9.61;100.00;102571.66;5006485;28;20424;-70
2022/10/09 02:02:05;;;;;;;4.87;1.70;;;;;;;8.53;100.00;102436.66;4999595;28;20498;-71
2022/10/09 02:04:31;;;;;;;5.07;1.87;;;;;;;9.42;100.00;102577.09;5010114;28;20553;-71
2022/10/09 02:06:57;;;;;;;8.57;2.37;;;;;;;9.51;100.00;102574.38;5008996;28;21156;-71
2022/10/09 02:09:24;;;;;;;4.83;2.10;;;;;;;8.93;100.00;102490.81;5002415;28;20435;-70
2022/10/09 02:11:56;;;;;;;6.60;1.70;;;;;;;9.49;100.00;102562.16;5014250;28;20184;-71
2022/10/09 02:14:21;;;;;;;6.27;1.83;;;;;;;9.38;100.00;102565.84;5006956;28;21008;-71
2022/10/09 02:16:57;;;;;;;6.57;2.03;;;;;;;8.88;100.00;102526.06;5012268;28;20439;-70
2022/10/09 02:19:29;;;;;;;4.00;1.80;;;;;;;9.40;100.00;102577.28;5008878;28;20196;-70
2022/10/09 02:22:18;;;;;;;6.07;1.53;;;;;;;9.43;100.00;102574.28;4997638;28;20612;-70
2022/10/09 02:24:45;;;;;;;10.23;2.03;;;;;;;9.17;100.00;102528.63;5011343;28;20454;-70
2022/10/09 02:27:12;;;;;;;7.50;2.40;;;;;;;9.38;100.00;102576.56;5013553;28;20548;-71
2022/10/09 02:29:43;;;;;;;6.50;1.90;;;;;;;9.28;100.00;102559.69;5014911;28;20535;-70
2022/10/09 02:32:09;;;;;;;4.10;1.60;;;;;;;9.44;100.00;102564.41;5013445;28;20435;-71
2022/10/09 02:34:35;;;;;;;5.60;1.83;;;;;;;9.46;100.00;102575.84;5002517;28;20464;-70
2022/10/09 02:37:01;;;;;;;7.60;2.60;;;;;;;9.38;100.00;102573.88;5018792;28;20470;-70
2022/10/09 02:39:26;;;;;;;6.93;1.70;;;;;;;9.30;100.00;102557.72;5016468;28;20484;-70
2022/10/09 02:41:52;;;;;;;7.50;1.77;;;;;;;9.19;100.00;102529.28;5018148;28;20678;-70
2022/10/09 02:44:17;;;;;;;4.80;1.80;;;;;;;9.47;100.00;102569.47;5011473;28;20214;-70
2022/10/09 02:46:43;;;;;;;10.30;2.43;;;;;;;9.31;100.00;102561.22;4995182;28;20302;-70
2022/10/09 02:49:08;;;;;;;6.67;2.03;;;;;;;8.82;100.00;102489.16;5017327;28;20192;-71
2022/10/09 02:51:34;;;;;;;5.60;1.73;;;;;;;9.44;100.00;102561.75;5016767;28;20653;-70
2022/10/09 02:53:59;;;;;;;3.80;1.60;;;;;;;9.41;100.00;102562.03;5017652;28;20223;-70
2022/10/09 02:56:25;;;;;;;6.57;2.10;;;;;;;9.15;100.00;102527.91;5004623;28;20626;-70
2022/10/09 02:58:51;;;;;;;7.10;1.93;;;;;;;8.78;100.00;102510.03;4992680;28;20193;-70
2022/10/09 03:01:16;;;;;;;6.17;1.90;;;;;;;9.04;100.00;102531.63;4985132;28;20474;-70
2022/10/09 03:03:43;;;;;;;3.73;1.50;;;;;;;9.35;100.00;102560.81;4985339;28;20207;-70
2022/10/09 03:06:11;;;;;;;8.23;2.20;;;;;;;9.21;100.00;102535.34;5002606;28;20196;-70
2022/10/09 03:08:39;;;;;;;4.30;1.87;;;;;;;9.34;100.00;102559.09;5006344;28;20944;-71
2022/10/09 03:11:04;;;;;;;9.37;2.80;;;;;;;8.98;100.00;102526.03;5011389;28;20526;-70
2022/10/09 03:13:31;;;;;;;7.00;3.13;;;;;;;9.23;100.00;102568.19;4991940;28;20459;-70
2022/10/09 03:16:07;;;;;;;8.93;2.10;;;;;;;9.32;100.00;102569.13;5006111;28;20208;-70
2022/10/09 03:18:36;;;;;;;8.20;2.30;;;;;;;9.24;100.00;102537.72;5009878;28;20449;-70
2022/10/09 03:21:05;;;;;;;8.37;2.43;;;;;;;9.14;100.00;102547.66;4989947;28;21031;-70
2022/10/09 03:23:30;;;;;;;3.40;1.70;;;;;;;9.32;100.00;102561.09;4997834;28;20827;-70
2022/10/09 03:26:01;;;;;;;4.77;1.97;;;;;;;9.34;100.00;102564.44;5016865;28;20450;-70
2022/10/09 03:28:26;;;;;;;3.70;1.80;;;;;;;9.49;100.00;102559.47;5021457;28;20726;-69
2022/10/09 03:30:52;;;;;;;7.53;1.80;;;;;;;9.42;100.00;102564.56;5020356;28;20439;-70
2022/10/09 03:33:18;;;;;;;6.70;1.60;;;;;;;8.94;100.00;102544.22;5023288;28;20209;-70
2022/10/09 03:35:46;;;;;;;7.20;2.00;;;;;;;9.07;100.00;102567.97;5008492;28;20189;-70
2022/10/09 03:38:12;;;;;;;6.17;2.07;;;;;;;9.25;100.00;102568.03;5010704;28;20427;-70
2022/10/09 03:40:37;;;;;;;5.30;1.53;;;;;;;9.34;100.00;102567.13;5006643;28;20479;-70
2022/10/09 03:43:02;;;;;;;6.00;2.17;;;;;;;8.66;100.00;102468.41;5021940;28;20462;-70
2022/10/09 03:45:28;;;;;;;6.23;1.80;;;;;;;8.81;100.00;102499.03;5017894;28;20250;-70
2022/10/09 03:47:53;;;;;;;9.43;2.10;;;;;;;9.10;100.00;102542.72;5007621;28;20661;-70
2022/10/09 03:50:19;;;;;;;4.03;2.10;;;;;;;9.00;100.00;102534.75;5021181;28;20216;-70
2022/10/09 03:52:44;;;;;;;9.30;1.90;;;;;;;8.78;100.00;102519.88;5023489;28;20189;-70
2022/10/09 03:55:09;;;;;;;10.33;2.20;;;;;;;8.79;100.00;102554.53;5021847;28;20184;-70
2022/10/09 03:57:35;;;;;;;5.73;2.00;;;;;;;8.63;100.00;102540.91;5002181;28;21114;-70
2022/10/09 04:00:00;;;;;;;6.67;2.20;;;;;;;8.79;100.00;102564.38;5022387;28;20215;-71
2022/10/09 04:02:26;;;;;;;7.80;2.27;;;;;;;8.42;100.00;102508.16;5020015;28;20243;-70
2022/10/09 04:04:51;;;;;;;5.30;1.90;;;;;;;8.54;100.00;102507.84;5000420;28;20204;-70
2022/10/09 04:07:17;;;;;;;6.13;2.03;;;;;;;8.53;100.00;102524.91;5005887;28;20251;-70
2022/10/09 04:09:42;;;;;;;6.30;2.17;;;;;;;8.71;100.00;102557.09;5087476;22;20229;-70
2022/10/09 04:12:08;;;;;;;7.63;2.40;;;;;;;8.99;100.00;102578.53;5003437;28;20578;-70
2022/10/09 04:14:33;;;;;;;5.53;2.00;;;;;;;8.78;100.00;102555.50;5017831;28;20216;-70
2022/10/09 04:16:58;;;;;;;7.53;2.30;;;;;;;8.93;100.00;102581.81;4987347;28;20187;-70
2022/10/09 04:19:24;;;;;;;6.77;2.00;;;;;;;8.38;100.00;102516.44;5014994;28;20262;-70
2022/10/09 04:21:49;;;;;;;7.47;2.57;;;;;;;8.89;100.00;102581.25;5000202;28;20223;-70
2022/10/09 04:24:15;;;;;;;5.97;1.97;;;;;;;8.97;100.00;102588.56;5015815;28;20204;-70
2022/10/09 04:26:40;;;;;;;5.87;2.20;;;;;;;9.02;100.00;102579.09;5018649;28;20575;-70
2022/10/09 04:29:05;;;;;;;5.53;2.37;;;;;;;8.40;100.00;102510.13;5017164;28;20185;-70
2022/10/09 04:31:31;;;;;;;4.80;2.20;;;;;;;8.66;100.00;102564.69;5014062;28;20176;-70
2022/10/09 04:33:56;;;;;;;5.70;1.80;;;;;;;8.60;100.00;102570.63;4993395;28;20208;-70
2022/10/09 04:36:22;;;;;;;5.03;1.90;;;;;;;8.80;100.00;102569.59;4997074;28;20658;-70
2022/10/09 04:38:47;;;;;;;9.60;1.73;;;;;;;8.30;100.00;102518.13;5015593;28;20191;-70
2022/10/09 04:41:13;;;;;;;4.50;1.80;;;;;;;8.69;100.00;102569.75;4997986;28;20211;-70
2022/10/09 04:43:38;;;;;;;8.40;2.40;;;;;;;8.60;100.00;102579.50;5000294;28;20291;-70
2022/10/09 04:46:05;;;;;;;6.97;2.30;;;;;;;8.33;100.00;102555.28;5015426;28;20666;-70
2022/10/09 04:48:30;;;;;;;8.43;2.63;;;;;;;8.54;100.00;102587.25;5012956;28;20220;-70
2022/10/09 04:50:56;;;;;;;6.77;2.20;;;;;;;8.08;100.00;102522.81;5009195;28;20867;-70
2022/10/09 04:53:22;;;;;;;6.60;2.57;;;;;;;8.03;100.00;102518.84;5019354;28;20223;-70
2022/10/09 04:55:47;;;;;;;6.33;2.57;;;;;;;8.32;100.00;102570.47;4999178;28;20191;-71
2022/10/09 04:58:13;;;;;;;8.03;2.40;;;;;;;8.38;100.00;102583.31;5011598;28;26704;-70
2022/10/09 05:00:44;;;;;;;9.33;2.90;;;;;;;8.31;100.00;102582.16;5011416;28;20247;-70
2022/10/09 05:03:10;;;;;;;8.77;3.00;;;;;;;8.30;100.00;102564.44;5014541;28;20457;-71
2022/10/09 05:05:36;;;;;;;4.20;2.60;;;;;;;8.14;100.00;102550.78;4997891;28;20450;-71
2022/10/09 05:08:01;;;;;;;6.80;2.80;;;;;;;8.22;100.00;102536.72;5013161;28;20192;-70
2022/10/09 05:10:27;;;;;;;6.03;2.77;;;;;;;7.77;100.00;102495.38;5010669;28;20185;-70
2022/10/09 05:12:52;;;;;;;7.13;2.60;;;;;;;8.23;100.00;102587.38;5006967;28;20199;-70
2022/10/09 05:15:18;;;;;;;6.60;2.80;;;;;;;8.09;100.00;102571.75;5008778;28;20195;-71
2022/10/09 05:17:44;;;;;;;7.33;3.07;;;;;;;8.20;100.00;102582.31;5006492;28;20188;-70
2022/10/09 05:20:09;;;;;;;6.97;2.97;;;;;;;8.09;100.00;102545.00;5012867;28;20868;-71
2022/10/09 05:22:35;;;;;;;7.40;3.03;;;;;;;8.02;100.00;102571.47;4990160;28;20200;-72
2022/10/09 05:25:00;;;;;;;9.03;3.50;;;;;;;7.60;100.00;102477.34;4994985;28;20216;-71
2022/10/09 05:27:25;;;;;;;6.00;3.20;;;;;;;7.60;100.00;102550.31;5009137;28;20635;-71
2022/10/09 05:29:51;;;;;;;8.93;3.47;;;;;;;6.75;100.00;102393.34;5018638;28;20189;-71
2022/10/09 05:32:16;;;;;;;6.00;3.33;;;;;;;7.89;100.00;102565.53;5016618;28;20708;-71
2022/10/09 05:34:42;;;;;;;10.30;3.60;;;;;;;8.01;100.00;102583.13;4989822;28;20732;-71
2022/10/09 05:37:07;;;;;;;8.83;3.60;;;;;;;8.08;100.00;102586.94;5029692;28;20208;-70
2022/10/09 05:39:34;;;;;;;4.40;2.67;;;;;;;8.02;100.00;102586.66;5028835;28;20193;-71
2022/10/09 05:42:03;;;;;;;11.93;3.60;;;;;;;7.79;100.00;102578.88;5019478;28;20618;-71
2022/10/09 05:44:28;;;;;;;5.00;3.17;;;;;;;7.76;100.00;102535.59;5010583;28;20466;-71
2022/10/09 05:46:54;;;;;;;9.27;3.60;;;;;;;8.01;100.00;102595.66;5009057;28;20428;-71
2022/10/09 05:49:19;;;;;;;6.60;3.47;;;;;;;7.14;100.00;102476.16;5026399;28;20595;-70
2022/10/09 05:51:45;;;;;;;7.50;4.00;;;;;;;7.32;100.00;102495.00;5019290;28;20645;-70
2022/10/09 05:54:15;;;;;;;5.03;3.30;;;;;;;7.56;100.00;102551.56;5001030;28;20274;-70
2022/10/09 05:56:43;;;;;;;4.57;2.87;;;;;;;7.85;100.00;102581.00;5015303;28;20615;-71
2022/10/09 05:59:18;;;;;;;6.60;3.87;;;;;;;8.02;100.00;102578.66;5016967;28;20434;-71
2022/10/09 06:01:49;;;;;;;8.83;3.90;;;;;;;7.91;100.00;102583.13;5006108;28;20474;-71
2022/10/09 06:04:22;;;;;;;7.93;4.30;;;;;;;7.67;100.00;102583.50;4978710;28;20822;-70
2022/10/09 06:06:48;;;;;;;10.17;5.10;;;;;;;7.46;100.00;102564.03;5015056;28;20443;-70
2022/10/09 06:09:16;;;;;;;5.30;3.50;;;;;;;7.46;100.00;102583.59;5021291;28;20528;-71
2022/10/09 06:11:42;;;;;;;8.00;4.50;;;;;;;7.66;100.00;102586.31;5001108;28;20446;-70
2022/10/09 06:14:10;;;;;;;7.80;4.33;;;;;;;7.04;100.00;102552.66;5010022;28;20483;-70
2022/10/09 06:16:37;;;;;;;8.70;4.23;;;;;;;7.50;100.00;102570.81;5017858;28;20412;-70
2022/10/09 06:19:04;;;;;;;4.70;4.20;;;;;;;7.45;100.00;102595.25;4988128;28;20994;-70
2022/10/09 06:21:30;;;;;;;10.60;4.67;;;;;;;7.65;100.00;102592.63;5005565;28;20481;-71
2022/10/09 06:23:57;;;;;;;9.80;4.40;;;;;;;7.60;100.00;102579.69;5012202;28;20462;-70
2022/10/09 06:26:24;;;;;;;13.50;4.53;;;;;;;7.62;100.00;102599.09;4995973;28;20182;-70
2022/10/09 06:28:50;;;;;;;10.53;4.83;;;;;;;7.87;100.00;102600.41;5016788;28;20800;-70
2022/10/09 06:31:19;;;;;;;7.70;4.23;;;;;;;7.90;100.00;102600.16;5013439;28;20450;-70
2022/10/09 06:33:47;;;;;;;6.40;3.90;;;;;;;7.98;100.00;102607.44;5018736;28;20304;-70
2022/10/09 06:36:19;;;;;;;7.47;4.67;;;;;;;7.92;100.00;102602.66;5006986;28;20435;-70
2022/10/09 06:38:44;;;;;;;7.67;4.50;;;;;;;7.96;100.00;102620.13;5017453;28;20609;-70
2022/10/09 06:41:13;;;;;;;8.07;5.50;;;;;;;7.97;100.00;102610.28;5012710;28;20989;-70
2022/10/09 06:43:39;;;;;;;10.23;5.33;;;;;;;7.82;100.00;102599.97;5012213;28;20900;-70
2022/10/09 06:46:08;;;;;;;7.23;4.70;;;;;;;7.87;100.00;102612.94;4981744;28;20446;-70
2022/10/09 06:48:35;;;;;;;7.37;4.73;;;;;;;8.05;100.00;102613.94;5012169;28;20519;-70
2022/10/09 06:51:06;;;;;;;9.20;4.50;;;;;;;8.04;100.00;102622.97;5014259;28;20452;-70
2022/10/09 06:53:36;;;;;;;12.17;5.00;;;;;;;7.93;100.00;102617.72;5007305;28;20931;-70
2022/10/09 06:56:02;;;;;;;11.67;4.60;;;;;;;7.83;100.00;102606.16;4993730;28;20441;-70
2022/10/09 06:58:27;;;;;;;10.53;4.67;;;;;;;7.99;100.00;102625.19;5004384;28;20445;-71
2022/10/09 07:01:17;;;;;;;9.13;4.10;;;;;;;7.81;100.00;102595.63;5011568;28;20840;-71
2022/10/09 07:03:46;;;;;;;9.80;3.93;;;;;;;8.13;100.00;102622.13;5003173;28;20821;-70
2022/10/09 07:06:13;;;;;;;7.97;4.60;;;;;;;8.16;100.00;102623.69;5012693;28;20448;-70
2022/10/09 07:08:40;;;;;;;6.77;4.30;;;;;;;8.01;100.00;102575.09;4986349;28;20438;-70
2022/10/09 07:11:11;;;;;;;7.00;4.50;;;;;;;7.64;100.00;102500.16;5016686;28;20472;-70
2022/10/09 07:13:37;;;;;;;10.20;4.40;;;;;;;8.09;100.00;102607.31;4999801;28;20459;-70
2022/10/09 07:16:03;;;;;;;9.40;4.53;;;;;;;8.18;100.00;102616.34;5008978;28;20978;-71
2022/10/09 07:18:32;;;;;;;8.37;4.57;;;;;;;8.40;100.00;102623.28;4985467;28;20435;-70
2022/10/09 07:20:59;;;;;;;7.23;5.13;;;;;;;8.36;100.00;102605.78;5014805;28;20518;-70
2022/10/09 07:23:25;;;;;;;10.40;4.13;;;;;;;7.93;100.00;102526.88;5015545;28;20466;-70
2022/10/09 07:25:50;;;;;;;9.60;5.00;;;;;;;8.17;100.00;102538.97;5000604;28;20500;-70
2022/10/09 07:28:15;;;;;;;9.57;4.30;;;;;;;8.68;100.00;102624.25;5006575;28;20567;-70
2022/10/09 07:30:41;;;;;;;7.83;4.43;;;;;;;8.73;100.00;102602.41;4990180;28;20189;-70
2022/10/09 07:33:06;;;;;;;9.47;4.20;;;;;;;8.63;100.00;102612.31;5023650;28;20213;-71
2022/10/09 07:35:31;;;;;;;7.50;4.13;;;;;;;8.76;100.00;102619.00;5024516;28;20181;-71
2022/10/09 07:37:57;;;;;;;8.00;4.37;;;;;;;8.18;100.00;102504.06;5005082;28;20181;-70
2022/10/09 07:40:24;;;;;;;12.10;5.77;;;;;;;8.58;100.00;102569.91;5010455;28;20576;-70
2022/10/09 07:42:50;;;;;;;8.43;5.03;;;;;;;8.11;100.00;102490.44;5010343;28;20209;-71
2022/10/09 07:45:15;;;;;;;8.50;4.10;;;;;;;8.54;100.00;102545.28;5002027;28;20488;-70
2022/10/09 07:47:41;;;;;;;11.60;4.20;;;;;;;8.95;100.00;102610.13;5006542;28;20546;-72
2022/10/09 07:50:06;;;;;;;8.30;5.17;;;;;;;8.91;100.00;102605.19;4995589;28;20258;-72
2022/10/09 07:52:32;;;;;;;9.00;4.10;;;;;;;9.01;100.00;102622.91;5002630;28;20190;-72
2022/10/09 07:54:57;;;;;;;10.37;5.13;;;;;;;9.13;100.00;102622.75;5001040;28;20208;-72
2022/10/09 07:57:23;;;;;;;10.30;5.53;;;;;;;8.70;100.00;102550.03;5003554;28;20276;-73
2022/10/09 07:59:48;;;;;;;13.43;5.10;;;;;;;8.99;100.00;102599.97;4982664;28;20189;-72
2022/10/09 08:02:13;;;;;;;10.80;5.00;;;;;;;9.16;100.00;102598.34;5011267;28;20212;-72
2022/10/09 08:04:40;;;;;;;11.00;4.70;;;;;;;9.37;100.00;102607.00;4997079;28;20683;-73
2022/10/09 08:07:05;;;;;;;7.80;4.00;;;;;;;9.59;100.00;102618.34;5006854;28;20211;-71
2022/10/09 08:09:30;;;;;;;6.87;4.40;;;;;;;9.43;100.00;102606.44;4997271;28;21142;-71
2022/10/09 08:11:57;;;;;;;9.07;4.90;;;;;;;9.50;100.00;102612.88;5012250;28;20653;-71
2022/10/09 08:14:22;;;;;;;15.80;5.63;;;;;;;9.44;100.00;102604.59;5012805;28;20200;-71
2022/10/09 08:16:48;;;;;;;11.30;4.77;;;;;;;9.58;100.00;102611.31;4991318;28;20470;-70
2022/10/09 08:19:16;;;;;;;11.10;4.47;;;;;;;9.80;100.00;102613.56;5012402;28;20747;-71
2022/10/09 08:21:41;;;;;;;10.20;4.80;;;;;;;9.54;100.00;102601.84;5004429;28;20205;-69
2022/10/09 08:24:09;;;;;;;10.47;4.73;;;;;;;9.90;100.00;102617.03;5013845;28;20502;-70
2022/10/09 08:26:34;;;;;;;6.43;4.20;;;;;;;8.67;100.00;102411.22;5015045;28;20204;-70
2022/10/09 08:29:02;;;;;;;10.23;5.60;;;;;;;10.19;100.00;102619.50;5019252;28;20451;-71
2022/10/09 08:31:28;;;;;;;8.60;4.70;;;;;;;10.04;100.00;102602.28;5009742;28;20193;-73
2022/10/09 08:33:56;;;;;;;9.00;4.73;;;;;;;9.92;100.00;102548.03;5018148;28;20466;-72
2022/10/09 08:36:23;;;;;;;10.83;5.33;;;;;;;10.27;100.00;102600.00;4999279;28;21174;-73
2022/10/09 08:38:48;;;;;;;7.13;4.07;;;;;;;10.44;100.00;102600.97;4991314;28;20463;-75
2022/10/09 08:41:24;;;;;;;8.77;4.93;;;;;;;10.47;100.00;102605.19;5003269;28;20518;-75
2022/10/09 08:44:01;;;;;;;8.17;3.40;;;;;;;10.34;100.00;102530.50;5013161;28;20443;-75
2022/10/09 08:46:45;;;;;;;7.53;3.90;;;;;;;10.73;100.00;102591.81;5013915;28;20428;-75
2022/10/09 08:49:37;;;;;;;10.93;4.00;;;;;;;10.91;100.00;102563.09;5006203;28;20450;-74
2022/10/09 08:52:15;;;;;;;8.10;3.97;;;;;;;10.92;100.00;102559.38;5009410;28;20423;-74
2022/10/09 08:54:43;;;;;;;11.97;4.87;;;;;;;10.97;100.00;102553.56;4994506;28;20478;-75
2022/10/09 08:57:13;;;;;;;10.50;4.40;;;;;;;11.08;100.00;102559.50;4991319;28;20440;-73
2022/10/09 08:59:38;;;;;;;9.63;3.60;;;;;;;11.15;100.00;102561.53;5011878;28;20474;-75
2022/10/09 09:02:31;;;;;;;8.83;3.03;;;;;;;11.32;100.00;102557.91;5012673;28;20472;-74
2022/10/09 09:05:16;;;;;;;3.90;3.10;;;;;;;11.30;100.00;102546.47;5014780;28;20248;-74
2022/10/09 09:07:47;;;;;;;7.23;3.70;;;;;;;11.18;100.00;102524.44;4999313;28;20451;-73
2022/10/09 09:11:00;;;;;;;6.90;3.20;;;;;;;10.64;100.00;102448.69;4998786;28;20810;-73
2022/10/09 09:13:51;;;;;;;8.10;3.33;;;;;;;11.69;100.00;102560.22;4909698;29;20533;-73
2022/10/09 09:16:41;;;;;;;7.20;3.03;;;;;;;11.63;100.00;102554.63;5016508;28;20435;-74
2022/10/09 09:19:42;;;;;;;9.70;2.90;;;;;;;11.69;100.00;102559.38;5004322;28;21052;-74
2022/10/09 09:22:15;;;;;;;11.47;3.40;;;;;;;11.75;100.00;102546.13;4958349;28;20482;-74
2022/10/09 09:25:19;;;;;;;6.53;2.60;;;;;;;11.91;100.00;102548.00;4989124;28;20458;-74
2022/10/09 09:27:45;;;;;;;11.20;3.20;;;;;;;11.82;100.00;102548.16;4987761;28;20447;-73
2022/10/09 09:30:21;;;;;;;5.60;2.83;;;;;;;11.55;100.00;102517.84;5009626;28;20534;-75
2022/10/09 09:33:20;;;;;;;14.10;3.70;;;;;;;11.97;100.00;102546.50;5013858;28;20475;-75
2022/10/09 09:36:14;;;;;;;13.23;5.13;;;;;;;12.05;100.00;102545.69;5014843;28;20549;-75
2022/10/09 09:38:39;;;;;;;5.97;2.43;;;;;;;11.82;100.00;102473.69;5003594;28;20450;-75
2022/10/09 09:41:05;;;;;;;8.77;2.70;;;;;;;12.19;100.00;102551.25;5012780;28;20475;-75
2022/10/09 09:43:30;;;;;;;9.10;3.63;;;;;;;11.92;100.00;102547.03;5005686;28;20231;-74
2022/10/09 09:45:59;;;;;;;11.77;3.13;;;;;;;12.29;100.00;102534.91;5011523;28;20681;-73
2022/10/09 09:48:34;;;;;;;4.70;2.23;;;;;;;12.46;100.00;102540.31;5008886;28;20187;-73
2022/10/09 09:51:03;;;;;;;11.33;3.73;;;;;;;12.36;100.00;102513.59;5008390;28;20434;-73
2022/10/09 09:53:33;;;;;;;7.83;2.77;;;;;;;12.48;100.00;102535.59;5018011;28;20567;-73
2022/10/09 09:55:59;;;;;;;10.70;3.60;;;;;;;12.41;100.00;102509.38;5015700;28;20789;-73
2022/10/09 09:58:43;;;;;;;5.90;3.13;;;;;;;12.24;100.00;102493.38;5011722;28;20458;-73
2022/10/09 10:01:20;;;;;;;7.13;3.07;;;;;;;12.43;100.00;102528.03;5008519;28;20340;-73
2022/10/09 10:03:51;;;;;;;7.43;2.90;;;;;;;12.48;100.00;102508.69;5016370;28;20466;-73
2022/10/09 10:06:24;;;;;;;7.17;2.83;;;;;;;12.53;100.00;102517.09;5016018;28;20442;-73
2022/10/09 10:09:25;;;;;;;8.07;3.03;;;;;;;11.07;100.00;102291.94;5031059;22;20414;-80
2022/10/09 10:12:00;;;;;;;7.03;2.73;;;;;;;10.21;100.00;102152.75;4960028;28;20562;-77
2022/10/09 10:14:26;;;;;;;8.10;2.70;;;;;;;11.09;100.00;102252.34;5009386;28;20658;-77
2022/10/09 10:16:54;;;;;;;5.23;2.67;;;;;;;10.47;100.00;102181.31;5015069;28;20531;-78
2022/10/09 10:19:24;;;;;;;13.53;3.30;;;;;;;12.57;100.00;102511.19;5017116;28;20471;-78
2022/10/09 10:22:00;;;;;;;8.30;2.80;;;;;;;11.61;100.00;102287.91;5017357;28;20460;-78
2022/10/09 10:24:31;;;;;;;9.27;2.80;;;;;;;10.93;100.00;102176.31;5018508;28;20446;-77
2022/10/09 10:27:18;;;;;;;11.60;2.93;;;;;;;13.25;100.00;102501.75;5003289;28;20438;-77
2022/10/09 10:29:46;;;;;;;7.50;2.63;;;;;;;10.58;100.00;102149.66;5016340;28;20902;-78
2022/10/09 10:32:22;;;;;;;9.50;2.70;;;;;;;11.33;100.00;102266.78;5014875;28;20518;-78
2022/10/09 10:34:47;;;;;;;9.43;2.97;;;;;;;12.96;100.00;102502.34;5018505;28;20521;-78
2022/10/09 10:37:13;;;;;;;11.93;3.00;;;;;;;13.09;100.00;102504.47;5017406;28;20876;-79
2022/10/09 10:39:51;;;;;;;8.90;2.77;;;;;;;12.15;100.00;102329.34;5018799;28;20208;-79
2022/10/09 10:42:44;;;;;;;9.83;2.93;;;;;;;13.22;100.00;102490.41;5022453;28;20251;-78
2022/10/09 10:45:13;;;;;;;7.57;2.53;;;;;;;12.65;100.00;102389.19;5007297;28;20562;-79
2022/10/09 10:47:45;;;;;;;5.87;2.20;;;;;;;12.64;100.00;102350.69;5017782;28;20448;-79
2022/10/09 10:50:15;;;;;;;13.83;2.50;;;;;;;12.23;100.00;102328.44;5023558;28;20463;-79
2022/10/09 10:52:49;;;;;;;7.10;2.53;;;;;;;12.04;100.00;102281.28;5022401;28;20540;-78
2022/10/09 10:55:28;;;;;;;12.00;3.70;;;;;;;13.65;100.00;102472.00;5023135;28;21013;-79
2022/10/09 10:58:10;;;;;;;6.77;2.37;;;;;;;13.86;100.00;102474.06;5017158;28;20449;-79
2022/10/09 11:00:41;;;;;;;17.50;2.90;;;;;;;11.94;100.00;102101.31;5018417;28;20491;-80
2022/10/09 11:03:26;;;;;;;3.53;1.73;;;;;;;11.90;100.00;102161.84;5013604;28;20523;-77
2022/10/09 11:06:29;;;;;;;7.93;2.30;;;;;;;11.69;100.00;102075.56;5020624;28;20518;-77
2022/10/09 11:09:06;;;;;;;8.23;2.97;;;;;;;12.47;100.00;102158.00;5021651;28;20524;-76
2022/10/09 11:11:45;;;;;;;10.97;2.77;;;;;;;12.62;100.00;102153.50;5025303;28;20426;-77
2022/10/09 11:14:26;;;;;;;7.53;2.20;;;;;;;14.44;100.00;102435.56;4997403;28;20529;-79
2022/10/09 11:17:05;;;;;;;9.87;2.63;;;;;;;13.53;100.00;102301.75;5015388;28;20461;-78
2022/10/09 11:19:57;;;;;;;6.87;2.40;;;;;;;13.39;100.00;102270.22;5013190;28;20450;-78
2022/10/09 11:22:41;;;;;;;6.63;1.70;;;;;;;14.53;100.00;102425.53;5010532;28;20566;-77
2022/10/09 11:25:32;;;;;;;8.97;2.03;;;;;;;12.52;100.00;102119.75;5019808;28;20991;-77
2022/10/09 11:28:12;;;;;;;7.40;2.20;;;;;;;12.51;100.00;102215.81;5006899;28;20604;-77
2022/10/09 11:30:46;;;;;;;8.70;2.20;;;;;;;12.02;100.00;102064.66;5023806;28;20439;-77
2022/10/09 11:33:20;;;;;;;10.03;3.47;;;;;;;14.16;100.00;102423.72;5024256;28;20427;-77
2022/10/09 11:36:05;;;;;;;8.47;2.30;;;;;;;12.73;100.00;102211.47;5020913;28;20588;-77